Hlavní strana
METAR-TAF:

METAR-TAF

Letiště :

Kajaani, Finsko

zeměpisná šířka: 64-17N, zeměpisná délka: 027-41E, výška: 143 m

Aktuální stav počasí

Zpráva byla vytvořena před 37 minutami, v 21:50 UTC
Jihozápadní vítr 6 kt
Teplota 1°C
Vlhkost vzduchu 100%
Tlak 998 hPa
Viditelnost: 6000 m
Zataženo ve výšce 200 ft

METAR: EFKI 252150Z AUTO 23006KT 6000 OVC002 01/01 Q0998

Čas: 00:27 (22:27 UTC)


TAF: chybějící

Stav a předpovědi počasí z více než 4 000 letišť (zprávy METAR a TAF).

Červené a žluté tečky na mapě představují dostupné meteorologické stanice.

Když kurzor umístíte na tečku, zobrazí se název stanice.

Pak kliknutím zobrazíte stav a předpověď počasí.

Chcete-li změnit mapu, kliknutím na zelené tlačítko se znaménkem +mapu přiblížíte, kliknutím na zelené tlačítko se znaménkem – mapu oddálíte a kliknutím na zelené šipky přejdete na sousední mapy.


METAR-TAF: